Time;durP1;ratioP1;P1;durP2;ratioP2;P2;SDS_P1;SDS_P2;PMS_P1;PMS_P2;Temp;Humidity;BMP_temperature;BMP_pressure;BME280_temperature;BME280_humidity;BME280_pressure;Samples;Min_cycle;Max_cycle;Signal;HPM_P1;HPM_P2
2021/01/31 00:02:12;;;;;;;63.72;35.15;;;;;;;2.60;71.62;94040.50;5017681;28;20189;-62
2021/01/31 00:04:38;;;;;;;61.40;34.60;;;;;;;2.69;71.34;94028.78;5018712;28;20186;-62
2021/01/31 00:07:05;;;;;;;63.80;35.72;;;;;;;2.49;71.87;94033.53;5016414;28;20190;-63
2021/01/31 00:09:31;;;;;;;63.60;36.92;;;;;;;2.26;73.19;94046.50;5018834;28;20185;-62
2021/01/31 00:11:57;;;;;;;61.15;34.10;;;;;;;2.23;73.79;94043.56;5018079;28;20200;-62
2021/01/31 00:14:24;;;;;;;59.95;33.63;;;;;;;2.43;73.16;94046.56;5016608;28;21592;-63
2021/01/31 00:16:50;;;;;;;65.20;34.40;;;;;;;2.32;73.11;94027.47;5018222;28;20699;-63
2021/01/31 00:19:17;;;;;;;56.95;33.47;;;;;;;2.48;72.68;94031.94;5017492;28;20676;-64
2021/01/31 00:21:43;;;;;;;58.38;33.20;;;;;;;2.56;72.75;94039.38;5016177;28;20209;-62
2021/01/31 00:24:09;;;;;;;51.58;30.23;;;;;;;2.50;72.67;94044.69;5018684;28;20879;-61
2021/01/31 00:26:36;;;;;;;49.28;28.08;;;;;;;2.44;72.39;94041.19;5017576;28;20198;-62
2021/01/31 00:29:03;;;;;;;45.70;27.25;;;;;;;2.41;72.51;94046.78;5016436;28;20757;-60
2021/01/31 00:31:29;;;;;;;44.70;26.35;;;;;;;2.54;72.19;94043.97;5018936;28;20948;-63
2021/01/31 00:33:56;;;;;;;45.10;26.75;;;;;;;2.28;72.94;94059.94;5017480;28;20232;-64
2021/01/31 00:36:22;;;;;;;44.92;25.98;;;;;;;2.14;72.87;94053.44;5018139;28;20205;-61
2021/01/31 00:38:48;;;;;;;44.25;26.25;;;;;;;1.95;75.38;94041.63;5021300;28;20182;-62
2021/01/31 00:41:15;;;;;;;43.38;26.50;;;;;;;2.36;73.47;94038.94;5020404;28;20200;-62
2021/01/31 00:43:41;;;;;;;46.35;28.42;;;;;;;2.51;72.54;94036.69;5020417;28;20199;-63
2021/01/31 00:46:08;;;;;;;43.70;24.63;;;;;;;2.24;74.02;94056.25;5024566;28;20201;-62
2021/01/31 00:48:35;;;;;;;39.00;24.33;;;;;;;2.41;73.43;94066.72;5025047;28;20186;-62
2021/01/31 00:51:01;;;;;;;37.72;23.75;;;;;;;2.41;73.12;94057.13;5020568;28;20212;-61
2021/01/31 00:53:28;;;;;;;37.38;23.15;;;;;;;2.45;73.18;94058.28;5036691;28;20209;-62
2021/01/31 00:56:05;;;;;;;38.25;23.73;;;;;;;2.42;73.26;94050.97;5020512;28;20215;-63
2021/01/31 00:58:39;;;;;;;40.38;23.83;;;;;;;2.32;72.84;94042.97;5021253;28;20193;-64
2021/01/31 01:01:05;;;;;;;38.78;24.05;;;;;;;2.39;73.29;94045.47;5035027;28;20586;-63
2021/01/31 01:03:32;;;;;;;40.63;23.65;;;;;;;2.36;73.21;94054.44;5020045;28;20189;-63
2021/01/31 01:06:00;;;;;;;40.05;24.85;;;;;;;2.40;73.33;94045.25;5020851;28;20209;-60
2021/01/31 01:08:27;;;;;;;41.03;25.45;;;;;;;2.52;73.06;94045.25;5019160;28;20299;-62
2021/01/31 01:10:53;;;;;;;42.28;23.77;;;;;;;2.58;72.63;94039.94;5021434;28;20173;-61
2021/01/31 01:13:19;;;;;;;38.88;23.58;;;;;;;2.31;72.61;94022.53;5021022;28;20237;-63
2021/01/31 01:15:46;;;;;;;37.90;22.98;;;;;;;2.48;72.47;94031.94;5019549;28;20194;-63
2021/01/31 01:18:12;;;;;;;42.65;25.42;;;;;;;2.46;72.92;94036.59;5020996;28;20177;-61
2021/01/31 01:20:38;;;;;;;39.78;23.95;;;;;;;2.49;73.25;94033.53;5021571;28;20202;-62
2021/01/31 01:23:05;;;;;;;39.80;24.48;;;;;;;2.50;72.44;94029.94;5019039;28;20213;-65
2021/01/31 01:25:31;;;;;;;38.72;22.83;;;;;;;2.42;73.20;94026.91;5021044;28;20212;-61
2021/01/31 01:27:58;;;;;;;40.30;23.48;;;;;;;2.41;72.53;94026.13;5020252;28;20194;-60
2021/01/31 01:30:27;;;;;;;40.15;24.45;;;;;;;2.27;73.27;94029.16;5019261;28;20193;-62
2021/01/31 01:32:56;;;;;;;40.03;23.48;;;;;;;2.27;73.60;94029.94;5036480;28;20233;-63
2021/01/31 01:35:23;;;;;;;37.83;22.45;;;;;;;2.16;74.23;94025.56;5019594;28;20204;-61
2021/01/31 01:37:50;;;;;;;36.92;23.15;;;;;;;2.22;73.87;94036.81;5021237;28;20554;-63
2021/01/31 01:40:27;;;;;;;35.90;22.38;;;;;;;2.44;73.62;94024.88;5020091;28;20201;-62
2021/01/31 01:42:54;;;;;;;36.95;22.60;;;;;;;2.38;73.42;94034.34;5020975;28;20231;-62
2021/01/31 01:45:21;;;;;;;37.92;23.50;;;;;;;2.52;73.26;94033.06;5020394;28;20304;-62
2021/01/31 01:47:52;;;;;;;38.85;24.00;;;;;;;2.67;72.65;94025.66;5018313;28;20695;-61
2021/01/31 01:50:24;;;;;;;38.83;24.88;;;;;;;2.34;73.00;94009.94;5020127;28;20268;-62
2021/01/31 01:52:53;;;;;;;36.03;22.15;;;;;;;2.30;73.99;94013.97;5021079;28;20208;-61
2021/01/31 01:55:21;;;;;;;36.97;23.20;;;;;;;2.36;73.52;94023.44;5019688;28;20186;-63
2021/01/31 01:57:52;;;;;;;33.67;21.33;;;;;;;2.24;73.93;94045.91;5018364;28;20178;-63
2021/01/31 02:00:20;;;;;;;33.80;21.55;;;;;;;1.96;74.80;94017.38;5019749;28;20189;-62
2021/01/31 02:03:03;;;;;;;33.40;21.02;;;;;;;2.20;74.61;94028.50;5020548;28;20204;-61
2021/01/31 02:05:30;;;;;;;34.88;21.85;;;;;;;2.16;74.49;94028.16;5020573;28;20201;-62
2021/01/31 02:07:57;;;;;;;36.97;21.52;;;;;;;2.30;74.12;94029.50;5019079;28;20281;-61
2021/01/31 02:10:25;;;;;;;34.85;22.40;;;;;;;2.44;74.25;94015.34;5019132;28;20189;-61
2021/01/31 02:12:59;;;;;;;38.40;23.02;;;;;;;2.36;74.03;94017.47;5021186;28;20217;-61
2021/01/31 02:15:26;;;;;;;48.30;25.85;;;;;;;2.02;75.02;94011.31;5018135;28;20240;-61
2021/01/31 02:18:16;;;;;;;40.05;23.77;;;;;;;2.22;74.85;94004.00;5023239;28;20182;-62
2021/01/31 02:20:55;;;;;;;49.50;28.17;;;;;;;2.42;74.20;94019.94;5022157;28;20196;-61
2021/01/31 02:23:33;;;;;;;51.28;27.92;;;;;;;2.28;74.49;94026.34;5021528;28;20193;-62
2021/01/31 02:26:09;;;;;;;43.30;25.55;;;;;;;2.27;74.96;94024.78;5021761;28;20185;-61
2021/01/31 02:28:35;;;;;;;49.90;27.83;;;;;;;2.15;74.38;94021.44;5021701;28;20189;-59
2021/01/31 02:31:07;;;;;;;48.70;26.83;;;;;;;2.32;74.89;94014.53;5018789;28;20213;-62
2021/01/31 02:33:40;;;;;;;41.92;24.42;;;;;;;2.51;74.34;94010.84;5020233;28;20699;-61
2021/01/31 02:36:35;;;;;;;42.72;23.30;;;;;;;2.53;73.94;93995.88;5019815;28;20197;-63
2021/01/31 02:39:17;;;;;;;49.00;25.58;;;;;;;2.30;73.46;93987.38;5021110;28;20225;-64
2021/01/31 02:41:56;;;;;;;43.97;25.38;;;;;;;2.20;74.23;93987.94;5021096;28;20595;-61
2021/01/31 02:44:28;;;;;;;38.95;22.73;;;;;;;2.01;75.12;94004.56;5021724;28;20228;-62
2021/01/31 02:47:00;;;;;;;38.08;23.55;;;;;;;2.12;74.69;94010.75;5020703;28;20267;-61
2021/01/31 02:49:35;;;;;;;31.90;20.83;;;;;;;2.14;75.43;94009.50;5020586;28;20694;-62
2021/01/31 02:52:14;;;;;;;35.53;21.75;;;;;;;2.14;74.74;94004.34;5019093;28;20734;-61
2021/01/31 02:54:50;;;;;;;258.88;121.30;;;;;;;2.05;74.91;93996.16;5019324;28;20302;-63
2021/01/31 02:57:23;;;;;;;39.50;23.15;;;;;;;2.20;74.83;93979.38;5020119;28;20738;-62
2021/01/31 02:59:53;;;;;;;56.60;32.70;;;;;;;2.18;74.52;93989.16;5017839;28;20186;-62
2021/01/31 03:02:37;;;;;;;42.78;24.75;;;;;;;1.95;74.80;93985.56;5032960;28;20636;-61
2021/01/31 03:05:26;;;;;;;43.08;25.30;;;;;;;1.83;74.68;93984.78;5019330;28;20197;-62
2021/01/31 03:08:01;;;;;;;38.00;23.23;;;;;;;1.77;75.98;94000.41;5019643;28;20656;-62
2021/01/31 03:10:34;;;;;;;35.20;22.00;;;;;;;1.83;75.88;93994.31;5017657;28;20670;-63
2021/01/31 03:13:07;;;;;;;35.97;23.13;;;;;;;1.95;75.47;93992.56;5017600;28;20216;-62
2021/01/31 03:15:53;;;;;;;35.50;22.88;;;;;;;1.92;75.75;94000.72;5020479;28;20198;-60
2021/01/31 03:18:26;;;;;;;37.40;22.20;;;;;;;1.80;75.90;93999.94;5018286;28;20205;-62
2021/01/31 03:21:07;;;;;;;38.35;23.77;;;;;;;1.86;75.94;94006.81;5020377;28;20208;-60
2021/01/31 03:23:47;;;;;;;33.90;22.40;;;;;;;1.87;75.49;93992.88;5019227;28;20224;-60
2021/01/31 03:26:22;;;;;;;45.38;25.70;;;;;;;1.90;75.18;93984.66;5019071;28;20198;-62
2021/01/31 03:28:49;;;;;;;39.63;25.02;;;;;;;1.99;75.23;93996.25;5017258;28;20208;-62
2021/01/31 03:31:19;;;;;;;40.35;25.70;;;;;;;2.02;75.67;93988.06;5017332;28;20236;-62
2021/01/31 03:34:02;;;;;;;48.00;28.10;;;;;;;1.99;74.65;93989.28;5018639;28;20206;-63
2021/01/31 03:36:31;;;;;;;51.92;28.92;;;;;;;2.03;74.84;93963.78;5018501;28;20216;-61
2021/01/31 03:38:59;;;;;;;61.25;34.20;;;;;;;2.02;74.69;93954.47;5018201;28;20189;-61
2021/01/31 03:41:28;;;;;;;65.72;36.70;;;;;;;1.70;75.22;93958.38;5018452;28;20194;-62
2021/01/31 03:43:55;;;;;;;193.50;84.47;;;;;;;1.65;74.95;93946.16;5019265;28;20193;-61
2021/01/31 03:46:35;;;;;;;68.32;37.85;;;;;;;1.39;75.53;93943.19;5019588;28;20204;-62
2021/01/31 03:49:18;;;;;;;71.07;38.78;;;;;;;1.48;75.74;93936.72;5025725;28;20196;-61
2021/01/31 03:51:45;;;;;;;67.88;38.80;;;;;;;1.49;75.96;93935.69;5018625;28;20203;-61
2021/01/31 03:54:11;;;;;;;71.70;39.63;;;;;;;1.40;76.40;93937.81;5018197;28;20217;-61
2021/01/31 03:56:48;;;;;;;69.80;39.10;;;;;;;1.42;76.39;93959.03;5016960;28;20196;-60
2021/01/31 03:59:21;;;;;;;73.35;38.42;;;;;;;1.42;76.37;93963.41;5032309;28;20568;-63
2021/01/31 04:01:51;;;;;;;62.90;35.75;;;;;;;1.25;77.26;93959.88;5016467;28;20193;-61
2021/01/31 04:04:40;;;;;;;63.38;33.47;;;;;;;1.28;76.91;93962.03;5018217;28;20652;-63
2021/01/31 04:07:08;;;;;;;61.13;34.53;;;;;;;1.40;76.73;93960.25;5018481;28;20668;-62
2021/01/31 04:09:39;;;;;;;59.20;32.80;;;;;;;1.40;77.14;93949.94;5017243;28;20201;-61
2021/01/31 04:12:08;;;;;;;57.92;33.72;;;;;;;1.50;77.02;93950.97;5016125;28;20816;-60
2021/01/31 04:14:46;;;;;;;61.40;33.45;;;;;;;1.49;76.44;93939.06;5019167;28;20244;-61
2021/01/31 04:17:12;;;;;;;55.72;33.10;;;;;;;1.66;76.16;93944.38;5023081;28;20605;-63
2021/01/31 04:19:38;;;;;;;57.60;33.35;;;;;;;1.65;75.38;93937.63;5022045;28;20606;-62
2021/01/31 04:22:05;;;;;;;49.63;27.05;;;;;;;1.82;75.44;93948.84;5021738;28;20236;-61
2021/01/31 04:24:31;;;;;;;47.33;26.33;;;;;;;1.90;75.68;93940.75;5020588;28;20186;-60
2021/01/31 04:26:57;;;;;;;42.88;25.45;;;;;;;1.87;75.89;93941.22;5021357;28;20542;-61
2021/01/31 04:29:24;;;;;;;43.35;26.33;;;;;;;1.85;75.71;93941.44;5022073;28;20216;-62
2021/01/31 04:31:50;;;;;;;45.90;27.05;;;;;;;1.97;75.42;93937.06;5019885;28;20237;-63
2021/01/31 04:34:17;;;;;;;44.28;26.75;;;;;;;1.72;75.83;93922.78;5021548;28;20239;-62
2021/01/31 04:36:45;;;;;;;45.50;26.63;;;;;;;1.89;75.50;93914.16;5021119;28;20204;-63
2021/01/31 04:39:12;;;;;;;42.08;25.35;;;;;;;1.93;75.15;93919.66;5020002;28;20617;-65
2021/01/31 04:41:41;;;;;;;42.20;25.42;;;;;;;1.84;75.15;93908.09;5021182;28;20201;-63
2021/01/31 04:44:13;;;;;;;52.92;31.40;;;;;;;1.66;75.47;93903.06;5022203;28;20572;-62
2021/01/31 04:46:51;;;;;;;45.22;28.33;;;;;;;1.79;75.51;93898.44;5020569;28;20198;-62
2021/01/31 04:49:36;;;;;;;51.13;28.42;;;;;;;1.82;74.63;93904.97;5020739;28;20293;-62
2021/01/31 04:52:16;;;;;;;44.42;27.60;;;;;;;1.87;74.83;93907.66;5021243;28;20205;-62
2021/01/31 04:55:07;;;;;;;51.80;29.58;;;;;;;1.72;74.79;93922.78;5021487;28;20228;-61
2021/01/31 04:57:45;;;;;;;52.00;28.90;;;;;;;1.73;74.76;93914.81;5019277;28;20183;-64
2021/01/31 05:00:24;;;;;;;43.63;26.85;;;;;;;1.80;75.08;93917.31;5020086;28;20643;-63
2021/01/31 05:03:01;;;;;;;45.72;26.90;;;;;;;1.82;75.07;93928.19;5018890;28;20604;-62
2021/01/31 05:05:31;;;;;;;43.40;26.85;;;;;;;1.81;74.65;93926.63;5019755;28;20203;-62
2021/01/31 05:08:06;;;;;;;43.35;25.83;;;;;;;1.82;74.80;93933.38;5019481;28;20214;-62
2021/01/31 05:10:32;;;;;;;42.47;26.00;;;;;;;2.04;74.62;93921.44;5019841;28;20668;-62
2021/01/31 05:13:16;;;;;;;41.03;24.98;;;;;;;2.07;74.44;93921.00;5020679;28;20209;-63
2021/01/31 05:15:53;;;;;;;40.20;24.23;;;;;;;1.83;74.90;93942.66;5020803;28;20660;-64
2021/01/31 05:18:20;;;;;;;38.97;22.75;;;;;;;1.97;74.98;93926.72;5019694;28;20605;-64
2021/01/31 05:20:54;;;;;;;44.72;26.20;;;;;;;2.04;74.86;93924.03;5030229;28;20228;-62
2021/01/31 05:23:20;;;;;;;38.70;23.55;;;;;;;1.78;75.53;93924.50;5020028;28;20194;-62
2021/01/31 05:25:47;;;;;;;43.58;27.25;;;;;;;1.96;74.58;93908.88;5019436;28;20544;-63
2021/01/31 05:28:15;;;;;;;41.55;25.88;;;;;;;1.92;74.24;93895.63;5018944;28;20201;-62
2021/01/31 05:30:44;;;;;;;42.45;25.65;;;;;;;2.04;73.78;93911.13;5020563;28;20652;-63
2021/01/31 05:33:14;;;;;;;41.47;25.25;;;;;;;2.13;73.34;93909.75;5020953;28;20335;-62
2021/01/31 05:35:50;;;;;;;42.17;26.77;;;;;;;2.05;73.04;93912.69;5020266;28;20277;-60
2021/01/31 05:38:38;;;;;;;46.13;26.52;;;;;;;1.91;73.83;93921.69;5019116;28;20579;-61
2021/01/31 05:41:26;;;;;;;46.45;26.30;;;;;;;2.03;73.71;93914.69;5021087;28;20198;-63
2021/01/31 05:44:08;;;;;;;46.22;26.30;;;;;;;1.93;74.69;93927.41;5021361;28;20193;-63
2021/01/31 05:46:45;;;;;;;43.95;26.08;;;;;;;1.88;73.83;93886.00;5020257;28;20197;-61
2021/01/31 05:49:34;;;;;;;44.55;27.13;;;;;;;2.03;74.19;93927.63;5020838;28;20655;-62
2021/01/31 05:52:02;;;;;;;41.70;24.50;;;;;;;1.88;74.88;93919.56;5011906;28;20213;-62
2021/01/31 05:54:35;;;;;;;42.42;25.10;;;;;;;2.02;74.74;93939.78;5020348;28;20214;-63
2021/01/31 05:57:03;;;;;;;42.20;25.63;;;;;;;2.09;75.03;93949.97;5019204;28;20213;-63
2021/01/31 05:59:41;;;;;;;40.30;24.80;;;;;;;2.18;74.99;93934.91;5018825;28;20207;-65
2021/01/31 06:02:08;;;;;;;43.10;26.17;;;;;;;2.12;74.86;93941.75;5019505;28;20593;-62
2021/01/31 06:04:34;;;;;;;39.42;24.83;;;;;;;1.95;74.83;93948.66;5018773;28;20229;-62
2021/01/31 06:07:08;;;;;;;41.03;25.63;;;;;;;2.08;75.05;93948.38;5019156;28;20201;-62
2021/01/31 06:09:39;;;;;;;51.30;31.05;;;;;;;2.03;74.82;93937.94;5020200;28;20177;-61
2021/01/31 06:12:38;;;;;;;58.85;34.00;;;;;;;2.12;74.61;93954.69;5019213;28;20229;-64
2021/01/31 06:15:13;;;;;;;56.42;33.53;;;;;;;1.99;74.64;93955.69;4996626;28;20339;-61
2021/01/31 06:17:40;;;;;;;61.83;35.78;;;;;;;2.01;74.55;93964.00;5018615;28;20276;-63
2021/01/31 06:20:24;;;;;;;72.45;43.15;;;;;;;2.01;74.82;93984.69;5018431;28;20303;-63
2021/01/31 06:22:50;;;;;;;74.25;42.40;;;;;;;1.87;74.73;93983.34;5019654;28;20190;-62
2021/01/31 06:25:25;;;;;;;95.50;53.10;;;;;;;1.94;74.65;93983.22;5017897;28;20190;-63
2021/01/31 06:28:10;;;;;;;96.45;53.97;;;;;;;1.74;74.73;93991.28;5017278;28;20290;-62
2021/01/31 06:30:42;;;;;;;101.50;56.20;;;;;;;1.98;74.59;93994.69;5017921;28;20293;-63
2021/01/31 06:33:09;;;;;;;105.85;57.78;;;;;;;1.87;74.09;93964.47;5017590;28;20324;-61
2021/01/31 06:35:35;;;;;;;107.60;59.72;;;;;;;2.09;73.48;93993.91;5020050;28;20204;-64
2021/01/31 06:38:14;;;;;;;110.13;62.40;;;;;;;2.01;73.80;94004.56;5018040;28;20252;-64
2021/01/31 06:40:53;;;;;;;150.13;83.10;;;;;;;1.74;73.46;93995.66;5018654;28;20835;-62
2021/01/31 06:43:38;;;;;;;136.27;77.07;;;;;;;1.82;73.48;93985.00;5017807;28;20198;-62
2021/01/31 06:46:28;;;;;;;121.00;69.50;;;;;;;1.97;73.76;93990.53;5018908;28;20579;-62
2021/01/31 06:49:22;;;;;;;115.35;64.75;;;;;;;2.01;73.53;93987.25;5020788;28;20190;-61
2021/01/31 06:52:11;;;;;;;109.80;63.53;;;;;;;1.99;74.26;93985.91;5021117;28;20202;-62
2021/01/31 06:55:02;;;;;;;105.72;57.75;;;;;;;1.95;74.63;93995.13;5017692;28;20695;-62
2021/01/31 06:58:07;;;;;;;99.25;59.72;;;;;;;2.12;74.04;93993.44;5018567;28;20232;-63
2021/01/31 07:01:03;;;;;;;113.93;64.40;;;;;;;2.23;74.05;93997.81;5019826;28;20284;-62
2021/01/31 07:04:02;;;;;;;111.45;62.30;;;;;;;1.99;75.08;94009.16;5018920;28;20248;-61
2021/01/31 07:06:50;;;;;;;114.57;60.65;;;;;;;2.02;75.90;94011.31;4995458;28;20920;-62
2021/01/31 07:09:31;;;;;;;104.72;58.28;;;;;;;2.33;75.10;94000.63;5019654;28;20284;-62
2021/01/31 07:12:08;;;;;;;104.40;58.15;;;;;;;2.53;74.72;93997.69;5018390;28;20197;-63
2021/01/31 07:15:12;;;;;;;99.60;55.58;;;;;;;2.79;74.56;94005.69;5017836;28;20217;-63
2021/01/31 07:17:45;;;;;;;76.53;44.33;;;;;;;2.86;74.27;94014.16;5010339;28;20209;-62
2021/01/31 07:20:17;;;;;;;55.92;34.05;;;;;;;2.93;73.79;94004.44;5019192;28;20201;-61
2021/01/31 07:22:57;;;;;;;53.85;32.70;;;;;;;3.33;73.13;94004.41;5017698;28;20199;-62
2021/01/31 07:25:30;;;;;;;48.70;28.02;;;;;;;3.15;72.56;93996.03;5018592;28;20634;-63
2021/01/31 07:28:02;;;;;;;44.58;26.45;;;;;;;3.30;72.48;94004.06;5017422;28;20234;-64
2021/01/31 07:30:39;;;;;;;41.88;25.17;;;;;;;3.28;72.21;94011.28;5017017;28;20268;-60
2021/01/31 07:33:16;;;;;;;42.75;23.55;;;;;;;3.32;72.29;94015.00;5021176;28;20232;-62
2021/01/31 07:35:54;;;;;;;40.17;24.52;;;;;;;3.59;71.31;94008.22;5023050;28;20196;-62
2021/01/31 07:38:39;;;;;;;37.95;24.17;;;;;;;3.89;70.71;94003.50;5021397;28;20548;-62
2021/01/31 07:41:07;;;;;;;38.33;23.02;;;;;;;4.12;70.40;94000.78;5023910;28;20212;-60
2021/01/31 07:43:36;;;;;;;39.20;23.60;;;;;;;4.37;69.89;93990.75;5024128;28;20200;-63
2021/01/31 07:46:12;;;;;;;37.85;23.73;;;;;;;4.50;69.05;93985.22;5016582;28;20196;-62
2021/01/31 07:48:45;;;;;;;37.45;23.08;;;;;;;4.66;68.86;93989.56;5023600;28;20276;-63
2021/01/31 07:51:17;;;;;;;35.55;22.50;;;;;;;4.58;68.27;93989.97;5026087;28;20205;-62
2021/01/31 07:53:43;;;;;;;31.92;20.23;;;;;;;4.29;67.99;94004.09;5027156;28;20213;-61
2021/01/31 07:56:26;;;;;;;30.90;20.50;;;;;;;4.31;67.86;93990.91;5027388;28;20666;-62
2021/01/31 07:59:12;;;;;;;33.10;20.98;;;;;;;4.10;68.72;94000.22;5027333;28;20213;-60
2021/01/31 08:01:42;;;;;;;41.00;24.42;;;;;;;4.21;68.94;93991.56;5021253;28;20197;-62
2021/01/31 08:04:17;;;;;;;31.45;21.92;;;;;;;4.27;69.20;93998.38;5024883;28;20190;-62
2021/01/31 08:06:53;;;;;;;28.73;18.98;;;;;;;4.33;68.15;93997.44;5023841;28;20227;-61
2021/01/31 08:09:25;;;;;;;33.38;20.58;;;;;;;4.06;69.03;93993.94;5022110;28;20259;-63
2021/01/31 08:11:59;;;;;;;32.42;20.60;;;;;;;4.37;68.60;93992.53;5021365;28;20204;-61
2021/01/31 08:15:03;;;;;;;34.72;22.13;;;;;;;4.43;68.72;93995.00;5025008;28;20221;-63
2021/01/31 08:17:44;;;;;;;33.55;21.27;;;;;;;4.59;67.79;93988.97;5024015;28;20300;-62
2021/01/31 08:20:29;;;;;;;32.83;21.73;;;;;;;4.81;69.16;93989.78;5027074;28;20204;-61
2021/01/31 08:23:00;;;;;;;115.72;74.25;;;;;;;4.75;68.15;93982.16;5030062;28;20193;-65
2021/01/31 08:25:55;;;;;;;39.28;25.95;;;;;;;5.11;67.30;93971.94;5023352;28;20679;-65
2021/01/31 08:28:35;;;;;;;37.28;22.42;;;;;;;4.94;66.94;93970.44;5021640;28;20201;-63
2021/01/31 08:31:01;;;;;;;37.67;22.52;;;;;;;4.95;66.66;93998.75;5023869;28;20233;-61
2021/01/31 08:33:34;;;;;;;35.75;22.33;;;;;;;5.23;66.60;93984.00;5027261;28;20231;-61
2021/01/31 08:36:24;;;;;;;36.13;22.27;;;;;;;5.42;66.70;93973.00;5019843;28;20213;-60
2021/01/31 08:38:55;;;;;;;35.70;21.52;;;;;;;5.59;66.03;93973.69;5022754;28;20213;-60
2021/01/31 08:41:25;;;;;;;32.45;21.35;;;;;;;5.68;67.12;93976.63;5028679;28;20220;-63
2021/01/31 08:43:54;;;;;;;32.00;21.13;;;;;;;5.91;66.20;93977.09;5027374;28;20288;-62
2021/01/31 08:46:33;;;;;;;48.50;32.13;;;;;;;5.96;65.34;93981.56;5026751;28;20220;-64
2021/01/31 08:49:08;;;;;;;122.03;75.35;;;;;;;6.13;65.46;93990.03;5022820;28;20197;-63
2021/01/31 08:51:37;;;;;;;181.77;117.80;;;;;;;6.21;64.90;93989.53;5025422;28;20283;-64
2021/01/31 08:54:06;;;;;;;267.15;160.55;;;;;;;6.34;64.66;93981.31;5024646;28;20227;-65
2021/01/31 08:56:49;;;;;;;289.83;170.90;;;;;;;6.25;64.66;93988.00;5023548;28;20192;-60
2021/01/31 08:59:23;;;;;;;198.65;125.88;;;;;;;6.25;64.32;93980.22;5025143;28;20205;-63
2021/01/31 09:02:11;;;;;;;170.60;110.32;;;;;;;6.28;64.63;93991.94;5024683;28;20686;-63
2021/01/31 09:04:43;;;;;;;147.75;92.93;;;;;;;5.85;65.56;93998.13;5023024;28;20198;-62
2021/01/31 09:07:12;;;;;;;145.80;97.18;;;;;;;5.88;65.74;93993.19;5024424;28;20193;-65
2021/01/31 09:09:50;;;;;;;155.02;97.53;;;;;;;6.00;65.91;93995.66;5023265;28;20268;-61
2021/01/31 09:12:19;;;;;;;139.23;89.43;;;;;;;5.75;65.90;93979.78;5028127;28;20705;-62
2021/01/31 09:14:46;;;;;;;133.55;88.75;;;;;;;5.94;66.05;94007.03;5030684;28;20243;-62
2021/01/31 09:17:22;;;;;;;143.93;93.63;;;;;;;6.04;65.68;94013.09;5030905;28;20189;-62
2021/01/31 09:19:48;;;;;;;168.27;106.88;;;;;;;6.02;65.96;93996.19;5030826;28;20544;-63
2021/01/31 09:22:22;;;;;;;156.55;103.75;;;;;;;6.26;65.28;94010.38;5030593;28;20205;-61
2021/01/31 09:24:59;;;;;;;170.48;109.65;;;;;;;6.00;65.44;94019.03;5030756;28;20255;-63
2021/01/31 09:27:26;;;;;;;170.27;107.60;;;;;;;6.09;65.46;94025.34;5030851;28;20429;-61
2021/01/31 09:30:14;;;;;;;174.18;112.30;;;;;;;6.08;65.57;94026.38;5028094;28;20558;-61
2021/01/31 09:32:45;;;;;;;170.43;107.00;;;;;;;6.14;65.44;94015.00;5024921;28;20244;-62
2021/01/31 09:35:18;;;;;;;160.23;103.88;;;;;;;6.09;65.64;93999.34;5025953;28;20213;-63
2021/01/31 09:37:44;;;;;;;158.38;101.72;;;;;;;6.07;65.70;94011.81;5025558;28;20186;-60
2021/01/31 09:40:13;;;;;;;157.07;103.05;;;;;;;6.02;65.61;94014.38;5024840;28;20190;-61
2021/01/31 09:42:40;;;;;;;154.75;103.22;;;;;;;6.06;65.58;94010.22;5025120;28;20193;-62
2021/01/31 09:45:13;;;;;;;157.40;101.80;;;;;;;5.91;66.31;94012.72;5023675;28;20198;-62
2021/01/31 09:47:40;;;;;;;162.07;105.43;;;;;;;5.89;66.32;94005.16;5024437;28;20201;-63
2021/01/31 09:50:12;;;;;;;169.75;111.40;;;;;;;5.96;66.26;94004.97;5023015;28;20671;-63
2021/01/31 09:52:47;;;;;;;169.63;107.72;;;;;;;6.06;66.05;94002.44;5023975;28;20201;-62
2021/01/31 09:55:41;;;;;;;161.90;105.50;;;;;;;5.95;65.85;93998.19;5026354;28;20671;-64
2021/01/31 09:58:42;;;;;;;167.25;104.88;;;;;;;5.86;66.21;94004.88;5023601;28;20209;-62
2021/01/31 10:01:15;;;;;;;154.27;100.00;;;;;;;5.75;65.97;94005.78;5004792;28;20204;-62
2021/01/31 10:03:43;;;;;;;154.52;101.07;;;;;;;5.76;65.86;93999.56;5027245;28;20193;-61
2021/01/31 10:06:11;;;;;;;234.75;149.95;;;;;;;5.95;65.86;93977.38;5030473;28;20181;-61
2021/01/31 10:08:48;;;;;;;319.38;214.05;;;;;;;6.17;65.92;93991.06;5031407;28;20202;-65
2021/01/31 10:11:42;;;;;;;209.05;132.85;;;;;;;5.93;66.59;94002.88;5029131;28;20201;-64
2021/01/31 10:14:33;;;;;;;162.02;107.90;;;;;;;6.25;65.77;93988.00;5028915;28;20259;-61
2021/01/31 10:17:18;;;;;;;207.10;130.60;;;;;;;6.49;65.60;93991.03;5028008;28;20205;-64
2021/01/31 10:19:45;;;;;;;171.65;111.75;;;;;;;6.51;66.33;93992.34;5030435;28;20321;-62
2021/01/31 10:22:26;;;;;;;533.30;328.58;;;;;;;6.54;65.69;93981.44;5029829;28;20271;-61
2021/01/31 10:24:53;;;;;;;401.23;264.65;;;;;;;6.53;65.39;93968.66;5030404;28;20250;-64
2021/01/31 10:27:25;;;;;;;186.02;120.90;;;;;;;6.62;65.19;93962.75;5029470;28;20193;-64
2021/01/31 10:29:53;;;;;;;336.37;209.57;;;;;;;6.59;65.43;93972.84;5029731;28;20649;-63
2021/01/31 10:32:23;;;;;;;268.57;165.47;;;;;;;6.52;65.71;93961.88;5029050;28;20472;-66
2021/01/31 10:34:51;;;;;;;260.03;163.67;;;;;;;6.62;65.58;93947.13;5029323;28;20484;-62
2021/01/31 10:37:30;;;;;;;248.27;152.40;;;;;;;6.67;66.05;93954.16;5029513;28;20444;-62
2021/01/31 10:39:56;;;;;;;881.08;466.27;;;;;;;6.70;65.36;93964.06;5029783;28;20432;-63
2021/01/31 10:42:23;;;;;;;319.53;171.77;;;;;;;6.97;65.31;93965.47;5029140;28;20205;-66
2021/01/31 10:44:49;;;;;;;369.37;203.13;;;;;;;7.06;67.04;93932.69;5029185;28;20447;-64
2021/01/31 10:47:15;;;;;;;254.70;160.25;;;;;;;7.02;65.20;93926.44;5028963;28;20645;-62
2021/01/31 10:49:42;;;;;;;271.03;170.83;;;;;;;7.09;64.23;93942.59;5028924;28;20236;-67
2021/01/31 10:52:09;;;;;;;275.73;169.07;;;;;;;7.03;63.91;93943.63;5029224;28;20828;-66
2021/01/31 10:54:36;;;;;;;264.63;166.77;;;;;;;7.19;63.30;93942.63;5029183;28;20960;-63
2021/01/31 10:57:02;;;;;;;237.50;150.43;;;;;;;7.27;62.66;93940.53;5028983;28;20792;-66
2021/01/31 10:59:29;;;;;;;247.43;163.30;;;;;;;7.30;62.69;93942.66;5029615;28;20818;-66
2021/01/31 11:01:55;;;;;;;272.10;171.93;;;;;;;7.42;63.17;93945.78;5029035;28;20440;-64
2021/01/31 11:04:22;;;;;;;257.23;162.30;;;;;;;7.53;62.51;93942.16;5028829;28;20436;-60
2021/01/31 11:06:49;;;;;;;350.27;184.77;;;;;;;7.61;62.22;93923.41;5028403;28;20440;-63
2021/01/31 11:09:16;;;;;;;517.50;212.90;;;;;;;7.77;62.20;93922.38;5028494;28;20806;-64
2021/01/31 11:11:44;;;;;;;613.57;261.70;;;;;;;7.87;61.88;93943.22;5029017;28;20825;-63
2021/01/31 11:14:11;;;;;;;241.10;142.67;;;;;;;7.91;61.19;93933.84;5029504;28;20486;-62
2021/01/31 11:16:37;;;;;;;339.73;160.23;;;;;;;7.76;60.88;93923.41;5028231;28;20459;-61
2021/01/31 11:19:04;;;;;;;262.67;156.37;;;;;;;7.75;60.67;93898.38;5027987;28;20444;-63
2021/01/31 11:21:30;;;;;;;205.73;136.27;;;;;;;7.98;60.43;93916.88;5027778;28;21131;-64
2021/01/31 11:23:57;;;;;;;224.87;147.43;;;;;;;8.07;59.74;93907.47;5028194;28;20512;-63
2021/01/31 11:26:24;;;;;;;214.47;138.80;;;;;;;8.27;59.11;93896.22;5029284;28;20973;-63
2021/01/31 11:28:53;;;;;;;191.60;124.57;;;;;;;8.20;57.36;93896.50;5029162;28;20810;-68
2021/01/31 11:31:20;;;;;;;178.80;118.30;;;;;;;8.32;57.49;93904.03;5028703;28;20884;-65
2021/01/31 11:33:47;;;;;;;246.60;166.60;;;;;;;8.30;56.64;93919.22;5029002;28;20490;-64
2021/01/31 11:36:13;;;;;;;159.70;105.47;;;;;;;8.49;56.36;93907.13;5028364;28;20435;-61
2021/01/31 11:38:41;;;;;;;143.03;95.23;;;;;;;8.71;55.68;93894.53;5028718;28;20439;-62
2021/01/31 11:41:07;;;;;;;137.17;93.90;;;;;;;8.67;55.88;93893.50;5027995;28;20757;-68
2021/01/31 11:43:34;;;;;;;144.13;94.33;;;;;;;8.79;57.33;93862.66;5029681;28;20432;-67
2021/01/31 11:46:00;;;;;;;135.23;90.13;;;;;;;8.44;54.19;93901.94;5012523;28;20449;-65
2021/01/31 11:48:26;;;;;;;139.47;93.77;;;;;;;8.41;55.15;93865.91;5010853;28;20515;-64
2021/01/31 11:50:53;;;;;;;87.07;56.40;;;;;;;8.66;54.47;93860.59;5024801;28;20816;-70